Stations météo

réclame
Mon MeteoGroup
San Vicente, Espagne (8017): Température de l'air & dewpoint: 12.10.2017 11:00:00 - 18.10.2017 11:00:00 (CEST)San Vicente, Espagne (8017): Vitesse du vent & gusts: 12.10.2017 11:00:00 - 18.10.2017 11:00:00 (CEST)San Vicente, Espagne (8017): Direction du vent: 12.10.2017 11:00:00 - 18.10.2017 11:00:00 (CEST)San Vicente, Espagne (8017): reduced air pressure: 12.10.2017 11:00:00 - 18.10.2017 11:00:00 (CEST)San Vicente, Espagne (8017): Quantités de précipitations: 12.10.2017 11:00:00 - 18.10.2017 11:00:00 (CEST)
Date & Time tt [°C] td [°C] ff [km/h] ff [knt] fx [km/h] fx [knt] dd ppp [hPa] rr [mm]
18.10.2017 11:00:00 - - - - - - - - -
18.10.2017 10:00:00 16,9 8,8 3 2 16 8 SSW 1008,7 0,0
18.10.2017 09:00:00 16,0 9,9 3 1 16 9 S 1008,7 0,0
18.10.2017 08:00:00 15,4 11,3 4 2 11 6 SSW 1008,8 -
18.10.2017 07:00:00 14,5 12,7 7 4 23 12 SW 1008,8 0,0
18.10.2017 06:00:00 13,5 12,2 9 5 14 8 S 1009,3 0,0
18.10.2017 05:00:00 14,8 13,6 4 2 17 9 SW 1010,2 0,0
18.10.2017 04:00:00 14,3 13,1 4 2 14 8 S 1010,8 0,0
18.10.2017 03:00:00 14,1 12,8 8 5 13 7 S 1011,9 0,0
18.10.2017 02:00:00 14,3 13,1 9 5 13 7 S 1012,6 -
18.10.2017 01:00:00 15,1 13,7 7 4 9 5 S 1013,3 0,0
18.10.2017 00:00:00 15,7 14,2 6 3 8 5 S 1014,0 0,0
17.10.2017 23:00:00 15,8 13,9 6 3 9 5 SSW 1014,4 0,0
17.10.2017 22:00:00 16,3 13,8 5 3 8 5 SSW 1014,7 0,0
17.10.2017 21:00:00 16,5 13,9 1 1 7 4 SSW 1014,6 0,0
17.10.2017 20:00:00 16,9 13,9 0 0 11 6 SW 1014,5 -
17.10.2017 19:00:00 17,2 13,9 5 3 11 6 W 1014,3 0,0
17.10.2017 18:00:00 17,6 15,3 1 1 18 10 W 1014,6 0,0
17.10.2017 17:00:00 17,4 15,3 9 5 21 11 W 1014,8 0,0
17.10.2017 16:00:00 17,8 16,1 13 7 25 13 W 1014,7 0,0
17.10.2017 15:00:00 17,9 16,2 12 7 22 12 W 1015,0 0,0
17.10.2017 14:00:00 17,7 15,9 12 6 23 12 W 1015,0 -
17.10.2017 13:00:00 17,7 15,9 6 4 17 9 W 1014,5 0,0
17.10.2017 12:00:00 17,6 15,8 10 5 48 26 W 1014,7 0,0
17.10.2017 11:00:00 20,8 10,9 12 6 22 12 S 1014,3 0,0
17.10.2017 10:00:00 19,3 13,7 6 4 15 8 SSW 1014,0 0,0
17.10.2017 09:00:00 17,2 15,7 5 3 13 7 S 1013,8 0,0
17.10.2017 08:00:00 16,5 15,2 0 0 8 5 WSW 1014,1 -
17.10.2017 07:00:00 15,9 14,8 1 1 13 7 S 1014,3 0,0
17.10.2017 06:00:00 15,3 14,1 6 3 13 7 S 1014,7 0,0
17.10.2017 05:00:00 14,9 13,8 8 5 11 6 S 1015,7 0,0
17.10.2017 04:00:00 14,9 13,8 6 3 10 5 SSW 1017,1 0,0
17.10.2017 03:00:00 15,6 14,3 4 2 8 5 SSW 1018,1 0,0
17.10.2017 02:00:00 16,2 14,9 3 2 11 6 SSW 1019,1 -
17.10.2017 01:00:00 16,6 15,3 6 3 16 9 ESE 1019,7 0,0
17.10.2017 00:00:00 16,7 15,4 7 4 22 12 E 1020,6 0,0
16.10.2017 23:00:00 16,6 15,2 8 4 19 10 E 1021,4 0,0
16.10.2017 22:00:00 17,3 15,8 12 7 18 10 ESE 1021,7 0,0
16.10.2017 21:00:00 17,7 15,7 7 4 12 7 ESE 1022,4 0,0
16.10.2017 20:00:00 18,0 16,0 0 0 12 6 SE 1022,9 -
16.10.2017 19:00:00 18,1 15,7 8 5 14 7 W 1023,1 0,0
16.10.2017 18:00:00 18,4 15,8 7 4 11 6 W 1022,9 0,0
16.10.2017 17:00:00 18,8 15,7 7 4 13 7 WNW 1022,9 0,0
16.10.2017 16:00:00 19,4 15,4 10 5 16 9 WNW 1022,8 0,0
16.10.2017 15:00:00 19,1 16,0 10 5 20 11 W 1022,7 0,0
16.10.2017 14:00:00 19,3 16,7 10 5 19 11 W 1023,0 -
16.10.2017 13:00:00 18,9 16,9 11 6 19 10 W 1023,0 0,0
16.10.2017 12:00:00 19,6 17,2 11 6 32 17 W 1022,7 0,0
16.10.2017 11:00:00 19,5 17,1 20 11 42 23 W 1021,6 0,0
16.10.2017 10:00:00 22,9 11,6 23 12 41 22 W 1019,8 0,0
16.10.2017 09:00:00 25,2 9,9 5 3 25 13 S 1016,6 0,0
16.10.2017 08:00:00 22,5 9,3 13 7 23 12 S 1015,9 -
16.10.2017 07:00:00 23,8 10,2 12 6 21 11 S 1015,6 0,0
16.10.2017 06:00:00 24,6 9,7 10 6 22 12 S 1015,1 0,0
16.10.2017 05:00:00 25,0 10,0 11 6 27 15 ESE 1014,8 0,0
16.10.2017 04:00:00 26,3 10,9 12 7 27 15 S 1015,0 0,0
16.10.2017 03:00:00 26,2 11,6 13 7 26 14 SSE 1015,2 0,0
16.10.2017 02:00:00 23,8 11,4 15 8 21 11 S 1015,5 -
16.10.2017 01:00:00 23,7 12,0 12 6 17 9 S 1015,9 0,0
16.10.2017 00:00:00 25,2 12,4 12 7 19 10 SSE 1016,0 0,0
15.10.2017 23:00:00 24,5 11,1 10 6 19 10 S 1016,2 0,0
15.10.2017 22:00:00 23,2 12,8 14 7 26 14 S 1016,0 0,0
15.10.2017 21:00:00 24,5 14,3 16 9 23 13 S 1015,9 0,0
15.10.2017 20:00:00 23,2 17,0 15 8 18 10 S 1016,1 -
15.10.2017 19:00:00 25,0 17,9 10 6 15 8 S 1016,3 0,0
15.10.2017 18:00:00 28,0 16,6 6 3 15 8 SSW 1016,5 0,0
15.10.2017 17:00:00 28,6 15,9 9 5 12 7 S 1016,5 0,0
15.10.2017 16:00:00 30,1 15,0 0 0 13 7 ENE 1017,0 0,0
15.10.2017 15:00:00 30,9 14,5 5 3 11 6 E 1017,4 0,0
15.10.2017 14:00:00 27,2 13,2 9 5 13 7 S 1018,6 -
15.10.2017 13:00:00 27,3 12,1 9 5 16 9 S 1019,2 0,0
15.10.2017 12:00:00 27,4 11,4 3 2 19 10 SSW 1019,6 0,0
15.10.2017 11:00:00 24,9 10,8 12 6 20 11 S 1019,2 0,0
15.10.2017 10:00:00 25,3 11,4 8 4 17 9 SSW 1018,9 0,0
15.10.2017 09:00:00 24,1 10,8 11 6 21 11 SSW 1018,4 0,0
15.10.2017 08:00:00 21,9 11,0 10 5 23 13 SSW 1018,6 -
15.10.2017 07:00:00 18,5 13,2 17 9 21 11 SSW 1018,3 0,0
15.10.2017 06:00:00 17,5 13,9 11 6 18 10 SSW 1018,5 0,0
15.10.2017 05:00:00 16,2 14,4 14 7 17 9 S 1018,5 0,0
15.10.2017 04:00:00 16,1 13,8 14 8 18 10 SSW 1018,9 0,0
15.10.2017 03:00:00 15,6 13,9 14 8 20 11 SSW 1019,4 0,0
15.10.2017 02:00:00 14,9 13,8 16 9 19 10 SSW 1019,6 -
15.10.2017 01:00:00 15,0 13,9 13 7 15 8 SSW 1020,2 0,0
15.10.2017 00:00:00 15,5 14,3 12 6 15 8 SSW 1020,5 0,0
14.10.2017 23:00:00 15,7 14,6 11 6 13 7 S 1020,6 0,0
14.10.2017 22:00:00 16,5 15,3 7 4 9 5 S 1021,0 0,0
14.10.2017 21:00:00 17,3 16,0 6 3 7 4 SSW 1021,0 0,0
14.10.2017 20:00:00 18,1 16,8 4 2 9 5 W 1021,0 -
14.10.2017 19:00:00 18,7 17,1 1 1 4 2 NW 1020,5 0,0
14.10.2017 18:00:00 19,6 17,9 0 0 13 7 NNE 1020,4 0,0
14.10.2017 17:00:00 19,3 17,5 9 5 13 7 ENE 1020,4 0,0
14.10.2017 16:00:00 19,4 17,4 5 3 13 7 ENE 1020,8 0,0
14.10.2017 15:00:00 19,4 17,4 9 5 14 7 ENE 1021,2 0,0
14.10.2017 14:00:00 18,7 16,5 5 3 11 6 NE 1022,0 -
14.10.2017 13:00:00 17,7 15,3 5 3 10 5 NE 1022,7 0,0
14.10.2017 12:00:00 17,4 14,7 3 2 8 4 NE 1023,0 0,0
14.10.2017 11:00:00 17,2 14,8 5 3 10 6 S 1023,2 0,0
14.10.2017 10:00:00 15,5 14,0 7 4 13 7 SSW 1023,1 0,0
14.10.2017 09:00:00 14,6 13,4 10 5 14 7 S 1023,0 0,0
14.10.2017 08:00:00 15,1 13,9 8 4 12 6 S 1023,0 -
14.10.2017 07:00:00 15,0 13,8 9 5 11 6 SSW 1023,2 0,0
14.10.2017 06:00:00 14,7 13,6 9 5 13 7 SSW 1023,3 0,0
14.10.2017 05:00:00 14,5 13,4 10 5 12 7 SSW 1023,8 0,0
14.10.2017 04:00:00 14,4 13,2 9 5 12 6 SSW 1024,4 0,0
14.10.2017 03:00:00 14,7 13,5 9 5 11 6 S 1024,8 0,0
14.10.2017 02:00:00 15,9 14,4 8 4 10 5 SSW 1024,9 -
14.10.2017 01:00:00 16,3 14,8 7 4 11 6 S 1025,2 0,0
14.10.2017 00:00:00 17,0 15,3 3 2 8 4 S 1025,3 0,0
13.10.2017 23:00:00 17,3 15,6 4 2 9 5 SSW 1025,6 0,0
13.10.2017 22:00:00 17,8 15,8 3 1 12 6 SSW 1025,6 0,0
13.10.2017 21:00:00 18,0 15,6 4 2 16 8 W 1025,2 0,0
13.10.2017 20:00:00 17,9 15,3 7 4 20 11 W 1025,0 -
13.10.2017 19:00:00 17,9 15,5 10 5 19 10 W 1024,7 0,0
13.10.2017 18:00:00 18,2 16,0 9 5 19 10 W 1024,6 0,0
13.10.2017 17:00:00 18,3 16,1 13 7 21 12 W 1024,6 0,0
13.10.2017 16:00:00 18,3 16,1 12 6 27 15 W 1024,5 0,0
13.10.2017 15:00:00 17,9 15,9 15 8 25 13 W 1024,6 0,0
13.10.2017 14:00:00 18,4 16,2 13 7 22 12 W 1024,7 -
13.10.2017 13:00:00 18,5 16,3 10 6 17 9 WNW 1024,6 0,0
13.10.2017 12:00:00 18,0 16,0 10 5 15 8 WNW 1024,5 0,0
13.10.2017 11:00:00 15,4 13,9 8 4 13 7 S 1024,5 0,0
13.10.2017 10:00:00 13,4 12,0 11 6 16 9 SSW 1023,8 0,0
13.10.2017 09:00:00 12,6 11,3 11 6 14 8 SSW 1023,5 0,0
13.10.2017 08:00:00 14,1 12,8 6 3 13 7 SSW 1023,1 -
13.10.2017 07:00:00 14,8 13,6 7 4 15 8 SW 1023,1 0,0
13.10.2017 06:00:00 12,5 11,1 11 6 15 8 SSW 1022,8 0,0
13.10.2017 05:00:00 12,6 11,4 10 6 14 7 SSW 1022,4 0,0
13.10.2017 04:00:00 12,7 11,6 12 6 16 9 SSW 1022,5 0,0
13.10.2017 03:00:00 13,2 12,1 11 6 13 7 SSW 1022,7 0,0
13.10.2017 02:00:00 15,0 13,9 4 2 13 7 W 1022,7 -
13.10.2017 01:00:00 14,0 12,8 11 6 13 7 SSW 1023,0 0,0
13.10.2017 00:00:00 14,3 13,2 9 5 13 7 SSW 1023,3 0,0
12.10.2017 23:00:00 - - - - - - - - -
12.10.2017 22:00:00 - - - - - - - - -
12.10.2017 21:00:00 - - - - - - - - -
12.10.2017 20:00:00 - - - - - - - - -
12.10.2017 19:00:00 18,0 16,5 6 3 15 8 ENE 1023,7 0,0
12.10.2017 18:00:00 18,5 16,6 8 4 18 10 ENE 1023,3 0,0
12.10.2017 17:00:00 18,7 16,5 12 7 20 11 ENE 1023,2 0,0
12.10.2017 16:00:00 18,9 16,3 11 6 19 10 ENE 1023,3 0,0
12.10.2017 15:00:00 18,7 16,0 10 5 16 9 ENE 1023,8 0,0
12.10.2017 14:00:00 19,0 15,4 6 3 11 6 ENE 1024,7 -
12.10.2017 13:00:00 18,0 14,7 4 2 6 4 N 1024,8 0,0
12.10.2017 12:00:00 17,8 13,1 3 2 8 4 E 1024,9 0,0
12.10.2017 11:00:00 15,9 13,6 3 2 14 7 SSW 1024,8 0,0

tt = Température de l'air
td = dewpoint
ff = Vitesse du vent
fx = gusts
dd = Direction du vent
ppp = reduced air pressure
rr = Quantités de précipitations

stations d'obs. à proximité